Portada
METAR-TAF:

METAR-TAF

Aeroports :

Belo Horizonte, Minas Gerais, Brasil

latitud: 19-51S, longitud: 043-57W, altitud: 785 m

Observació

L'informe es va fer fa 39 minuts, a les 17:00 UTC
Vent 8 kt del Est
Temperatura 26°C
Humitat 58%
Pressió 1013 hPa
Visibilitat 10 km o més
Cel ennuvolat a una alçada de 4000 ft
Núvols disperses a una alçada de 10000 ft

METAR: SBBH 171700Z 09008KT 9999 BKN040 SCT100 26/17 Q1013

Hora: 15:39 (17:39 UTC)


TAF: manca

Observacions i pronòstics meteorològics de més de 4000 aeroports (METAR i TAF).

Les estacions disponibles són els punts grocs i vermells al mapa.

Posi el ratolí al punt desitjat per veure el nom de l'estació.

Feu clic per veure les observacions i els pronòstics meteorològics.

Per canviar el mapa: feu clic els botons verds amb una creu de color negre per apropar; al botó verd amb un guió per allunyar la imatge; o en les fletxes verdes per a mapes adjacents.


METAR-TAF: